This is the latest recevied weather packets stored in our database for station/object DH5DY-6. If no packets are shown the sender has not sent any weather packets the latest 1 day(s).
| Time | Temp. | Humidity | Pressure | Rain* | Wind** | Luminosity | Snow |
|---|---|---|---|---|---|---|---|
| 1778003318 | 13.89° C | 93% | 1004.8 hPa | 2.29 mm | 0 m/s | 14 W/m² | - |
| 1778002719 | 13.89° C | 93% | 1004.8 hPa | 3.05 mm | 0 m/s | 21 W/m² | - |
| 1778002118 | 13.89° C | 93% | 1004.8 hPa | 3.3 mm | 0 m/s | 21 W/m² | - |
| 1778001518 | 13.89° C | 93% | 1005 hPa | 4.06 mm | 0.45 m/s, 360° | 19 W/m² | - |
| 1778000919 | 13.89° C | 93% | 1004.9 hPa | 4.06 mm | 0 m/s | 16 W/m² | - |
| 1778000318 | 13.89° C | 93% | 1005 hPa | 4.32 mm | 0 m/s | 26 W/m² | - |
| 1777999719 | 13.89° C | 93% | 1005 hPa | 4.06 mm | 0.89 m/s, 360° | 28 W/m² | - |
| 1777999119 | 13.89° C | 92% | 1004.9 hPa | 3.3 mm | 1.34 m/s, 360° | 28 W/m² | - |
| 1777998549 | 13.89° C | 92% | 1004.9 hPa | 2.54 mm | 0.89 m/s, 360° | 28 W/m² | - |
| 1777998518 | 13.89° C | 92% | 1004.9 hPa | 2.54 mm | 0.89 m/s, 360° | 28 W/m² | - |
| 1777997920 | 14.44° C | 90% | 1004.9 hPa | 1.52 mm | 1.34 m/s, 360° | 28 W/m² | - |
| 1777996718 | 14.44° C | 88% | 1005 hPa | 0.25 mm | 0.89 m/s, 360° | 39 W/m² | - |
| 1777996119 | 15° C | 88% | 1004.9 hPa | 0.25 mm | 0 m/s | 42 W/m² | - |
| 1777995519 | 15° C | 86% | 1004.9 hPa | 0 mm | 0 m/s | 60 W/m² | - |
| 1777994918 | 15.56° C | 83% | 1004.9 hPa | 0 mm | 0 m/s | 51 W/m² | - |
| 1777994318 | 16.11° C | 82% | 1004.9 hPa | 0 mm | 0 m/s | 37 W/m² | - |
| 1777993718 | 16.67° C | 77% | 1004.9 hPa | 0 mm | 1.34 m/s, 360° | 63 W/m² | - |
| 1777993118 | 17.22° C | 74% | 1004.9 hPa | 0 mm | 0 m/s | 72 W/m² | - |
| 1777992518 | 17.78° C | 68% | 1004.9 hPa | 0 mm | 0.89 m/s, 56° | 72 W/m² | - |
| 1777991918 | 17.78° C | 73% | 1005 hPa | 0 mm | 0.45 m/s, 107° | 156 W/m² | - |
| 1777991317 | 17.78° C | 67% | 1005 hPa | 0 mm | 0 m/s | 223 W/m² | - |
| 1777990718 | 17.78° C | 68% | 1005.1 hPa | 0 mm | 0.45 m/s, 337° | 278 W/m² | - |
| 1777990119 | 17.78° C | 69% | 1005.3 hPa | 0 mm | 0.45 m/s, 286° | 255 W/m² | - |
| 1777989518 | 17.22° C | 71% | 1005.4 hPa | 0 mm | 0.45 m/s, 289° | 218 W/m² | - |
| 1777988917 | 17.22° C | 69% | 1005.6 hPa | 0 mm | 0.45 m/s, 320° | 255 W/m² | - |
* Rain latest hour (hover to see other rain measurements)
** Current wind speed in m/s (hover to see current wind gust speed)